Latest Coastal Weather Observations for Karratha

IDW60701

Issued at 9:02 pm WST Monday 27 June 2016 (issued every 10 minutes, with the page automatically refreshed every 10 minutes)

About coastal observations | Map of coastal stations | Coastal observations for WA | Marine services | Other Formats
Station Details ID: 004083 Name: KARRATHA AERO Lat: -20.71 Lon: 116.77 Height: 5.3 m
Data from the previous 72 hours. | See also: Recent months at Karratha
Date/Time
WST
Temp
°C
Wind Pressure Rain since
9am
mm
Weather Cloud Vis
km
Sea
Height
m
Swell
Dir  Spd
kts
Gust
kts
hPa Trend Height
m
Period
s
Dir
27/09:00pm 16.5 SSE 6 7 1016.6 - 0.0 - - 10 - - - -
27/08:30pm 16.7 SE 6 7 1016.5 - 0.0 - - 10 - - - -
27/08:00pm 17.2 SE 8 9 1016.3 - 0.0 - - 10 - - - -
27/07:30pm 17.2 SE 6 7 1016.2 - 0.0 - - 10 - - - -
27/07:00pm 18.0 ESE 5 6 1016.0 - 0.0 - - 10 - - - -
27/06:30pm 18.3 ESE 5 5 1015.7 - 0.0 - - 10 - - - -
27/06:00pm 18.5 E 6 7 1015.4 - 0.0 - - 10 - - - -
27/05:30pm 19.9 ENE 6 7 1015.2 - 0.0 - - 10 - - - -
27/05:00pm 20.8 ENE 8 10 1015.0 - 0.0 - - 10 - - - -
27/04:30pm 21.0 ENE 10 13 1014.9 - 0.0 - - 10 - - - -
27/04:00pm 21.3 NE 12 15 1014.9 - 0.0 - - 10 - - - -
27/03:30pm 21.2 NE 12 15 1014.8 - 0.0 - - 10 - - - -
27/03:00pm 21.2 NE 14 16 1014.8 - 0.0 - - 10 - - - -
27/02:30pm 21.4 NE 14 17 1014.7 - 0.0 - - 10 - - - -
27/02:00pm 21.6 NE 14 17 1015.0 - 0.0 - - 10 - - - -
27/01:30pm 21.3 NE 13 17 1015.3 - 0.0 - - 10 - - - -
27/01:00pm 21.0 ENE 14 18 1015.8 - 0.0 - - 10 - - - -
27/12:30pm 21.3 ENE 13 17 1016.4 - 0.0 - - 10 - - - -
27/12:00pm 20.4 E 15 19 1016.8 - 0.0 - - 10 - - - -
27/11:30am 20.1 E 17 20 1017.3 - 0.0 - - 10 - - - -
27/11:00am 19.4 E 18 22 1017.6 - 0.0 - - 10 - - - -
27/10:30am 18.7 E 18 22 1018.0 - 0.0 - - 10 - - - -
27/10:00am 18.4 E 20 25 1018.1 - 0.0 - - 10 - - - -
27/09:30am 18.0 E 18 23 1018.3 - 0.0 - - 10 - - - -
27/09:00am 17.4 E 17 22 1018.4 - 0.0 - - 10 - - - -
27/08:30am 16.6 E 15 18 1018.5 - 0.0 - - 10 - - - -
27/08:00am 15.5 E 13 17 1018.3 - 0.0 - - 10 - - - -
27/07:30am 15.2 ESE 13 16 1018.3 - 0.0 - - 10 - - - -
27/07:00am 14.5 ESE 13 15 1018.1 - 0.0 - - 10 - - - -
27/06:30am 14.3 ESE 12 14 1018.1 - 0.0 - - 10 - - - -
27/06:00am 14.5 ESE 12 15 1017.9 - 0.0 - - 10 - - - -
27/05:30am 14.7 ESE 12 15 1017.7 - 0.0 - - 10 - - - -
27/05:00am 14.6 ESE 12 15 1017.6 - 0.0 - - 10 - - - -
27/04:30am 14.8 ESE 14 17 1017.5 - 0.0 - - 10 - - - -
27/04:00am 14.6 E 12 14 1017.5 - 0.0 - - 10 - - - -
27/03:30am 15.0 E 12 14 1017.3 - 0.0 - - 10 - - - -
27/03:00am 15.1 E 12 14 1017.0 - 0.0 - - 10 - - - -
27/02:30am 15.2 ESE 9 11 1017.3 - 0.0 - - 10 - - - -
27/02:00am 16.0 ESE 11 13 1017.5 - 0.0 - - 10 - - - -
27/01:30am 16.3 ESE 10 13 1017.5 - 0.0 - - 10 - - - -
27/01:00am 16.4 ESE 10 11 1017.5 - 0.0 - - 10 - - - -
27/12:30am 16.9 ESE 11 13 1017.6 - 0.0 - - 10 - - - -
27/12:00am 17.0 ESE 11 12 1017.5 - 0.0 - - 10 - - - -
 
Date/Time
WST
Temp
°C
Wind Pressure Rain since
9am
mm
Weather Cloud Vis
km
Sea
Height
m
Swell
Dir  Spd
kts
Gust
kts
hPa Trend Height
m
Period
s
Dir
26/11:30pm 16.7 ESE 9 11 1017.8 - 0.0 - - 10 - - - -
26/11:00pm 17.8 ESE 11 13 1017.8 - 0.0 - - 10 - - - -
26/10:30pm 18.1 ESE 10 13 1018.0 - 0.0 - - 10 - - - -
26/10:00pm 18.0 ESE 9 10 1018.1 - 0.0 - - 10 - - - -
26/09:30pm 16.8 E 10 11 1018.1 - 0.0 - - 10 - - - -
26/09:00pm 17.0 E 9 11 1018.1 - 0.0 - - 10 - - - -
26/08:30pm 17.3 E 9 11 1018.0 - 0.0 - - 10 - - - -
26/08:00pm 17.7 E 9 10 1017.7 - 0.0 - - 10 - - - -
26/07:30pm 18.0 E 8 9 1017.4 - 0.0 - - 10 - - - -
26/07:00pm 18.3 E 8 9 1017.1 - 0.0 - - 10 - - - -
26/06:30pm 19.1 E 8 9 1016.9 - 0.0 - - 10 - - - -
26/06:00pm 19.8 E 7 8 1016.8 - 0.0 - - 10 - - - -
26/05:30pm 21.6 E 9 11 1016.4 - 0.0 - - 10 - - - -
26/05:00pm 23.4 E 11 14 1016.1 - 0.0 - - 10 - - - -
26/04:30pm 24.0 ESE 11 13 1016.1 - 0.0 - - 10 - - - -
26/04:00pm 24.1 ESE 11 16 1016.1 - 0.0 - - 10 - - - -
26/03:30pm 24.2 ESE 11 14 1016.1 - 0.0 - - 10 - - - -
26/03:00pm 23.9 ESE 12 17 1016.1 - 0.0 - - 10 - - - -
26/02:30pm 23.8 ESE 11 15 1016.2 - 0.0 - - 10 - - - -
26/02:00pm 23.4 ESE 13 18 1016.3 - 0.0 - - 10 - - - -
26/01:30pm 23.1 ESE 16 20 1016.4 - 0.0 - - 10 - - - -
26/01:00pm 22.5 ESE 16 22 1016.8 - 0.0 - - 10 - - - -
26/12:30pm 22.2 E 16 21 1017.2 - 0.0 - - 10 - - - -
26/12:00pm 22.1 ESE 15 21 1017.5 - 0.0 - - 10 - - - -
26/11:30am 21.1 ESE 18 24 1017.9 - 0.0 - - 10 - - - -
26/11:00am 20.7 E 19 24 1018.2 - 0.0 - - 10 - - - -
26/10:30am 20.3 ESE 18 24 1018.8 - 0.0 - - 10 - - - -
26/10:00am 20.1 E 19 26 1019.0 - 0.0 - - 10 - - - -
26/09:30am 19.6 E 18 25 1019.2 - 0.0 - - 10 - - - -
26/09:00am 19.2 E 14 17 1019.1 - 0.2 - - 10 - - - -
26/08:30am 18.6 E 15 19 1018.8 - 0.2 - - 10 - - - -
26/08:00am 18.4 ESE 14 18 1018.4 - 0.2 - - 10 - - - -
26/07:30am 17.6 ESE 13 16 1017.9 - 0.2 - - 10 - - - -
26/07:00am 17.0 ESE 11 14 1017.6 - 0.2 - - 10 - - - -
26/06:30am 17.0 ESE 12 15 1017.4 - 0.2 - - 10 - - - -
26/06:00am 17.0 ESE 11 14 1017.1 - 0.2 - - 10 - - - -
26/05:30am 16.7 ESE 8 11 1017.0 - 0.2 - - 10 - - - -
26/05:00am 16.2 E 6 7 1016.8 - 0.2 - - 10 - - - -
26/04:30am 16.5 ESE 6 8 1016.7 - 0.2 - - 10 - - - -
26/04:00am 16.6 ESE 3 4 1016.8 - 0.2 - - 10 - - - -
26/03:30am 17.0 ESE 5 6 1016.9 - 0.2 - - 10 - - - -
26/03:00am 17.6 ESE 7 8 1016.6 - 0.2 - Mostly clear 10 - - - -
26/02:30am 18.0 ESE 7 8 1016.6 - 0.2 - - 10 - - - -
26/02:00am 18.9 SE 10 12 1016.5 - 0.2 - Partly cloudy 10 - - - -
26/01:30am 19.3 SE 11 14 1016.3 - 0.2 - - 10 - - - -
26/01:00am 19.2 SE 9 10 1016.5 - 0.2 - - 10 - - - -
26/12:30am 18.4 SE 8 10 1016.6 - 0.2 - - 10 - - - -
26/12:00am 18.1 SSE 7 8 1016.7 - 0.2 - - 10 - - - -
 
Date/Time
WST
Temp
°C
Wind Pressure Rain since
9am
mm
Weather Cloud Vis
km
Sea
Height
m
Swell
Dir  Spd
kts
Gust
kts
hPa Trend Height
m
Period
s
Dir
25/11:30pm 18.0 SSE 7 8 1016.5 - 0.2 - - 10 - - - -
25/11:00pm 18.1 S 8 9 1016.3 - 0.2 - - 10 - - - -
25/10:30pm 18.4 S 8 9 1016.2 - 0.2 - - 10 - - - -
25/10:00pm 18.9 S 8 9 1015.9 - 0.2 - - 10 - - - -
25/09:30pm 19.2 S 7 8 1015.7 - 0.2 - - 10 - - - -
25/09:00pm 19.7 S 6 7 1015.5 - 0.2 - - 10 - - - -
25/08:30pm 20.4 SW 7 9 1015.5 - 0.2 - - 10 - - - -
25/08:00pm 20.8 SW 7 9 1015.1 - 0.2 - - 10 - - - -
25/07:30pm 21.6 SW 8 9 1014.7 - 0.2 - - 10 - - - -
25/07:00pm 22.0 SW 8 9 1014.4 - 0.2 - - 10 - - - -
25/06:30pm 22.7 SW 8 11 1014.1 - 0.2 - - 10 - - - -
25/06:00pm 23.6 SW 9 11 1013.7 - 0.2 - - 10 - - - -
25/05:30pm 24.6 SW 7 9 1013.4 - 0.2 - - 10 - - - -
25/05:00pm 25.5 SSW 8 11 1013.1 - 0.2 - - 10 - - - -
25/04:30pm 25.8 SW 8 10 1012.8 - 0.2 - - 10 - - - -
25/04:00pm 25.6 SW 10 14 1012.6 - 0.2 - - 10 - - - -
25/03:30pm 25.1 WNW 9 11 1012.5 - 0.2 - - 10 - - - -
25/03:00pm 24.6 W 11 13 1012.4 - 0.2 - Partly cloudy 10 - - - -
25/02:30pm 24.7 W 9 13 1012.7 - 0.2 - Partly cloudy 10 - - - -
25/02:00pm 23.9 WNW 9 11 1013.1 - 0.2 - Partly cloudy 10 - - - -
25/01:30pm 23.6 W 8 11 1013.4 - 0.2 - Partly cloudy 10 - - - -
25/01:00pm 23.3 W 9 11 1014.0 - 0.2 - Partly cloudy 10 - - - -
25/12:30pm 23.2 W 6 8 1014.2 - 0.2 - Partly cloudy 10 - - - -
25/12:00pm 22.2 NE 3 5 1014.4 - 0.2 Recent precip. Mostly cloudy 10 - - - -
25/11:30am 22.8 S 6 9 1015.1 - 0.0 - Partly cloudy 10 - - - -
25/11:00am 22.6 SSW 7 9 1015.6 - 0.0 - Partly cloudy 10 - - - -
25/10:30am 22.2 S 6 8 1015.6 - 0.0 - Cloudy 10 - - - -
25/10:00am 21.9 SE 6 9 1015.5 - 0.0 - Partly cloudy 10 - - - -
25/09:30am 20.8 SSE 7 8 1015.6 - 0.0 - Cloudy 10 - - - -
25/09:00am 20.6 SSE 6 7 1015.6 - 26.2 - Mostly cloudy 10 - - - -
25/08:30am 20.2 S 7 8 1015.5 - 26.2 - Partly cloudy 10 - - - -
25/08:19am 20.0 S 5 7 1015.3 - 26.2 - Partly cloudy 10 - - - -
25/08:00am 19.8 S 6 7 1015.1 - 26.2 - Partly cloudy 10 - - - -
25/07:30am 19.7 SSE 6 7 1014.9 - 26.2 - Partly cloudy 10 - - - -
25/07:00am 19.5 CALM 0 0 1014.6 - 26.2 - Partly cloudy 10 - - - -
25/06:46am 19.6 S 2 4 1014.2 - 26.2 - Cloudy 10 - - - -
25/06:30am 19.5 S 6 7 1014.1 - 26.2 - Partly cloudy 4 - - - -
25/06:00am 19.4 SSE 7 8 1013.8 - 26.0 - Cloudy 4 - - - -
25/05:37am 19.5 SSE 6 8 1013.6 - 26.0 - Partly cloudy 5 - - - -
25/05:30am 19.5 SSE 6 7 1013.6 - 26.0 - Partly cloudy 10 - - - -
25/05:29am 19.5 SSE 6 7 1013.6 - 26.0 - Partly cloudy 10 - - - -
25/05:00am 19.3 S 7 9 1013.6 - 26.0 - Partly cloudy 3 - - - -
25/04:30am 19.2 S 7 8 1013.4 - 25.8 - Partly cloudy 4 - - - -
25/04:00am 19.3 S 7 8 1013.2 - 25.8 - Partly cloudy 4 - - - -
25/03:33am 19.3 SSE 7 9 1013.0 - 25.6 - Partly cloudy 5 - - - -
25/03:30am 19.2 SSE 7 9 1013.0 - 25.6 - Partly cloudy 7 - - - -
25/03:17am 19.3 SSE 7 9 1013.0 - 25.6 - Partly cloudy 10 - - - -
25/03:00am 19.2 SE 9 11 1013.1 - 25.6 Recent precip. Cloudy 9 - - - -
25/02:57am 19.1 SE 9 11 1013.0 - 25.6 - Partly cloudy 9 - - - -
25/02:30am 19.2 SE 8 9 1013.3 - 25.6 - Partly cloudy 10 - - - -
25/02:21am 19.2 SE 8 11 1013.3 - 25.6 - Partly cloudy 10 - - - -
25/02:00am 19.2 SE 8 10 1013.4 - 25.4 - Partly cloudy 4 - - - -
25/01:30am 19.1 SSE 10 12 1013.5 - 25.4 - Partly cloudy 4 - - - -
25/01:00am 19.2 SSE 9 11 1013.7 - 25.2 - Partly cloudy 4 - - - -
25/12:30am 19.2 SSE 11 13 1013.7 - 24.8 - Partly cloudy 2 - - - -
25/12:00am 19.3 SE 9 11 1013.5 - 23.8 Rain Cloudy 2 - - - -
 
Date/Time
WST
Temp
°C
Wind Pressure Rain since
9am
mm
Weather Cloud Vis
km
Sea
Height
m
Swell
Dir  Spd
kts
Gust
kts
hPa Trend Height
m
Period
s
Dir
24/11:30pm 19.6 SE 10 12 1013.6 - 21.2 - Cloudy 2 - - - -
24/11:00pm 19.8 SE 9 11 1013.7 - 19.0 - Partly cloudy 2 - - - -
24/10:30pm 20.8 E 10 12 1013.8 - 17.2 - Partly cloudy 2 - - - -
24/10:19pm 20.8 E 10 12 1014.0 - 16.4 - Partly cloudy 3 - - - -
24/10:10pm 20.7 E 11 15 1013.9 - 15.6 - Partly cloudy 2 - - - -
24/10:00pm 20.8 E 12 15 1013.9 - 14.6 - Partly cloudy 2 - - - -
24/09:30pm 21.0 ENE 11 14 1013.9 - 10.2 - Partly cloudy 2 - - - -

Other Formats:

Comma delimited format used in spreadsheet applications
http://www.bom.gov.au/fwo/IDW60701/IDW60701.95307.axf

JavaScript Object Notation format (JSON) in row-major order
http://www.bom.gov.au/fwo/IDW60701/IDW60701.95307.json